createdAt,value
2024-05-09T00:02:12.604Z,11.70
2024-05-09T00:04:39.497Z,11.70
2024-05-09T00:07:06.626Z,11.70
2024-05-09T00:09:33.505Z,11.70
2024-05-09T00:12:00.568Z,11.60
2024-05-09T00:14:27.506Z,11.60
2024-05-09T00:16:54.274Z,11.60
2024-05-09T00:19:21.612Z,11.60
2024-05-09T00:21:48.552Z,11.60
2024-05-09T00:24:15.425Z,11.60
2024-05-09T00:26:42.263Z,11.60
2024-05-09T00:29:09.224Z,11.60
2024-05-09T00:31:36.146Z,11.50
2024-05-09T00:34:03.283Z,11.50
2024-05-09T00:36:30.164Z,11.50
2024-05-09T00:38:57.073Z,11.50
2024-05-09T00:41:23.821Z,11.50
2024-05-09T00:43:50.883Z,11.50
2024-05-09T00:46:17.748Z,11.50
2024-05-09T00:48:44.768Z,11.50
2024-05-09T00:51:11.729Z,11.50
2024-05-09T00:53:38.940Z,11.50
2024-05-09T00:56:07.962Z,11.50
2024-05-09T00:58:34.885Z,11.50
2024-05-09T01:01:04.491Z,11.40
2024-05-09T01:03:31.382Z,11.50
2024-05-09T01:05:58.554Z,11.50
2024-05-09T01:08:25.536Z,11.50
2024-05-09T01:10:52.680Z,11.50
2024-05-09T01:13:19.487Z,11.50
2024-05-09T01:15:48.089Z,11.40
2024-05-09T01:18:16.322Z,11.40
2024-05-09T01:20:45.099Z,11.40
2024-05-09T01:23:14.538Z,11.40
2024-05-09T01:25:43.413Z,11.40
2024-05-09T01:28:10.521Z,11.40
2024-05-09T01:30:38.562Z,11.40
2024-05-09T01:33:07.630Z,11.40
2024-05-09T01:35:36.447Z,11.40
2024-05-09T01:38:03.747Z,11.40
2024-05-09T01:40:37.336Z,11.40
2024-05-09T01:43:07.483Z,11.40
2024-05-09T01:45:34.524Z,11.40
2024-05-09T01:48:02.214Z,11.40
2024-05-09T01:50:37.977Z,11.40
2024-05-09T01:53:12.193Z,11.30
2024-05-09T01:55:39.437Z,11.30
2024-05-09T01:58:08.935Z,11.30
2024-05-09T02:00:40.306Z,11.30
2024-05-09T02:03:11.772Z,11.30
2024-05-09T02:05:41.958Z,11.30
2024-05-09T02:08:12.058Z,11.30
2024-05-09T02:10:39.037Z,11.30
2024-05-09T02:13:07.661Z,11.30
2024-05-09T02:15:34.523Z,11.30
2024-05-09T02:18:01.448Z,11.30
2024-05-09T02:20:35.193Z,11.30
2024-05-09T02:23:05.285Z,11.30
2024-05-09T02:25:32.656Z,11.30
2024-05-09T02:27:59.975Z,11.30
2024-05-09T02:30:36.545Z,11.30
2024-05-09T02:33:07.809Z,11.30
2024-05-09T02:35:35.266Z,11.30
2024-05-09T02:38:02.510Z,11.20
2024-05-09T02:40:36.428Z,11.20
2024-05-09T02:43:06.346Z,11.20
2024-05-09T02:45:33.502Z,11.20
2024-05-09T02:48:01.721Z,11.20
2024-05-09T02:50:36.986Z,11.20
2024-05-09T02:53:06.871Z,11.10
2024-05-09T02:55:34.001Z,11.20
2024-05-09T02:58:00.998Z,11.10
2024-05-09T03:00:36.692Z,11.10
2024-05-09T03:03:12.205Z,11.10
2024-05-09T03:05:41.697Z,11.20
2024-05-09T03:08:09.205Z,11.10
2024-05-09T03:10:38.401Z,11.10
2024-05-09T03:13:06.935Z,11.10
2024-05-09T03:15:33.873Z,11.00
2024-05-09T03:18:00.895Z,11.00
2024-05-09T03:20:33.609Z,11.00
2024-05-09T03:23:02.684Z,11.00
2024-05-09T03:25:29.669Z,11.00
2024-05-09T03:27:56.802Z,10.90
2024-05-09T03:30:38.514Z,10.90
2024-05-09T03:33:13.510Z,10.90
2024-05-09T03:35:41.506Z,10.80
2024-05-09T03:38:08.497Z,10.80
2024-05-09T03:40:35.617Z,10.80
2024-05-09T03:43:02.365Z,10.80
2024-05-09T03:45:29.148Z,10.80
2024-05-09T03:47:56.278Z,10.90
2024-05-09T03:50:30.229Z,10.90
2024-05-09T03:53:01.343Z,10.90
2024-05-09T03:55:28.647Z,10.90
2024-05-09T03:57:55.421Z,11.00
2024-05-09T04:00:30.962Z,11.10
2024-05-09T04:03:05.750Z,11.10
2024-05-09T04:05:33.752Z,11.10
2024-05-09T04:08:00.871Z,11.20
2024-05-09T04:10:32.843Z,11.20
2024-05-09T04:13:01.651Z,11.30
2024-05-09T04:15:28.521Z,11.30
2024-05-09T04:17:55.676Z,11.30
2024-05-09T04:20:33.327Z,11.40
2024-05-09T04:23:06.014Z,11.40
2024-05-09T04:25:33.141Z,11.50
2024-05-09T04:28:00.009Z,11.60
2024-05-09T04:30:36.052Z,11.70
2024-05-09T04:33:06.645Z,11.80
2024-05-09T04:35:34.546Z,11.90
2024-05-09T04:38:01.427Z,11.90
2024-05-09T04:40:33.645Z,12.10
2024-05-09T04:43:03.257Z,12.20
2024-05-09T04:45:30.646Z,12.30
2024-05-09T04:47:57.875Z,12.30
2024-05-09T04:50:33.374Z,12.40
2024-05-09T04:53:04.379Z,12.70
2024-05-09T04:55:31.844Z,12.80
2024-05-09T04:57:58.549Z,13.00
2024-05-09T05:00:34.443Z,13.00
2024-05-09T05:03:06.910Z,13.10
2024-05-09T05:05:36.162Z,13.10
2024-05-09T05:08:03.191Z,13.10
2024-05-09T05:10:36.044Z,13.10
2024-05-09T05:13:18.040Z,13.10
2024-05-09T05:15:49.139Z,13.20
2024-05-09T05:18:16.802Z,13.20
2024-05-09T05:20:44.227Z,13.40
2024-05-09T05:23:12.401Z,13.50
2024-05-09T05:25:39.585Z,13.80
2024-05-09T05:28:06.480Z,14.10
2024-05-09T05:30:35.021Z,14.30
2024-05-09T05:33:02.511Z,14.30
2024-05-09T05:35:29.652Z,14.40
2024-05-09T05:37:56.614Z,14.60
2024-05-09T05:40:32.960Z,14.80
2024-05-09T05:43:04.057Z,14.80
2024-05-09T05:45:30.940Z,14.90
2024-05-09T05:47:57.997Z,15.50
2024-05-09T05:50:32.590Z,16.00
2024-05-09T05:53:03.403Z,16.00
2024-05-09T05:55:30.359Z,16.40
2024-05-09T05:57:57.302Z,16.20
2024-05-09T06:02:54.045Z,15.60
2024-05-09T06:05:21.147Z,15.60
2024-05-09T06:07:47.981Z,15.80
2024-05-09T06:10:21.305Z,16.40
2024-05-09T06:12:52.591Z,16.70
2024-05-09T06:15:19.323Z,16.60
2024-05-09T06:17:46.471Z,16.70
2024-05-09T06:20:20.447Z,16.40
2024-05-09T06:22:50.986Z,16.30
2024-05-09T06:25:18.879Z,16.30
2024-05-09T06:27:46.000Z,16.30
2024-05-09T06:30:25.615Z,16.50
2024-05-09T06:32:57.832Z,16.60
2024-05-09T06:35:25.276Z,16.80
2024-05-09T06:37:52.259Z,17.00
2024-05-09T06:40:25.667Z,17.00
2024-05-09T06:43:00.407Z,17.00
2024-05-09T06:45:27.181Z,17.00
2024-05-09T06:47:54.143Z,17.10
2024-05-09T06:50:24.288Z,17.00
2024-05-09T06:52:54.716Z,17.10
2024-05-09T06:55:21.618Z,17.40
2024-05-09T06:57:48.506Z,17.50
2024-05-09T07:00:22.862Z,17.70
2024-05-09T07:02:58.420Z,17.70
2024-05-09T07:05:26.734Z,18.30
2024-05-09T07:07:53.663Z,18.80
2024-05-09T07:10:28.639Z,19.30
2024-05-09T07:12:59.547Z,19.30
2024-05-09T07:15:26.409Z,19.20
2024-05-09T07:17:53.332Z,18.70
2024-05-09T07:20:27.871Z,18.30
2024-05-09T07:23:01.830Z,18.30
2024-05-09T07:25:28.948Z,18.20
2024-05-09T07:27:55.779Z,18.20
2024-05-09T07:30:27.736Z,18.30
2024-05-09T07:33:00.636Z,18.30
2024-05-09T07:35:27.856Z,18.30
2024-05-09T07:37:54.847Z,18.40
2024-05-09T07:40:31.560Z,18.50
2024-05-09T07:43:05.563Z,18.30
2024-05-09T07:53:36.016Z,18.00
2024-05-09T07:55:48.593Z,18.30
2024-05-09T07:58:18.990Z,18.80
2024-05-09T08:00:45.982Z,19.10
2024-05-09T08:03:12.865Z,19.30
2024-05-09T08:05:39.931Z,19.30
2024-05-09T08:08:08.123Z,19.40
2024-05-09T08:10:35.430Z,19.40
2024-05-09T08:13:02.521Z,19.60
2024-05-09T08:15:29.587Z,19.50
2024-05-09T08:17:57.069Z,19.20
2024-05-09T08:20:30.967Z,19.10
2024-05-09T08:23:01.812Z,18.70
2024-05-09T08:25:28.620Z,18.40
2024-05-09T08:27:55.645Z,18.10
2024-05-09T08:30:29.788Z,18.00
2024-05-09T08:33:03.555Z,18.00
2024-05-09T08:35:30.402Z,17.80
2024-05-09T08:37:57.450Z,18.00
2024-05-09T08:40:31.063Z,18.20
2024-05-09T08:43:02.818Z,18.40
2024-05-09T08:45:30.152Z,18.60
2024-05-09T08:47:59.692Z,18.60
2024-05-09T08:50:35.367Z,18.80
2024-05-09T08:53:05.571Z,18.90
2024-05-09T08:55:32.555Z,19.10
2024-05-09T08:58:01.069Z,19.30
2024-05-09T09:00:35.855Z,19.70
2024-05-09T09:03:06.122Z,19.90
2024-05-09T09:05:36.360Z,20.30
2024-05-09T09:08:04.483Z,20.40
2024-05-09T09:10:33.874Z,20.70
2024-05-09T09:13:01.701Z,20.80
2024-05-09T09:15:28.570Z,20.90
2024-05-09T09:17:59.411Z,21.00
2024-05-09T09:20:34.111Z,21.10
2024-05-09T09:23:04.564Z,21.40
2024-05-09T09:25:32.095Z,21.80
2024-05-09T09:27:59.365Z,21.90
2024-05-09T09:30:36.482Z,21.80
2024-05-09T09:33:11.682Z,21.80
2024-05-09T09:35:39.717Z,21.80
2024-05-09T09:38:07.295Z,21.90
2024-05-09T09:40:39.072Z,22.10
2024-05-09T09:43:13.839Z,22.20
2024-05-09T09:45:42.090Z,22.20
2024-05-09T09:48:10.377Z,22.50
2024-05-09T09:50:37.797Z,22.60
2024-05-09T09:53:05.752Z,22.70
2024-05-09T09:55:32.647Z,22.30
2024-05-09T09:58:00.587Z,22.10
2024-05-09T10:00:32.738Z,22.00
2024-05-09T10:03:01.124Z,22.30
2024-05-09T10:05:28.642Z,22.30
2024-05-09T10:07:56.563Z,22.00
2024-05-09T10:10:31.433Z,21.50
2024-05-09T10:13:06.500Z,21.80
2024-05-09T10:15:46.674Z,21.50
2024-05-09T10:18:14.513Z,21.60
2024-05-09T10:20:45.191Z,21.60
2024-05-09T10:23:28.411Z,21.60
2024-05-09T10:25:58.839Z,21.50
2024-05-09T10:28:26.536Z,21.30
2024-05-09T10:31:00.689Z,21.10
2024-05-09T10:33:35.539Z,21.00
2024-05-09T10:36:14.920Z,20.90
2024-05-09T10:38:43.152Z,21.20
2024-05-09T10:41:10.388Z,21.20
2024-05-09T10:43:39.005Z,21.40
2024-05-09T10:46:06.179Z,21.30
2024-05-09T10:48:33.285Z,21.60
2024-05-09T10:51:01.078Z,21.70
2024-05-09T10:53:28.924Z,21.80
2024-05-09T10:55:59.277Z,22.20
2024-05-09T10:58:27.124Z,22.50
2024-05-09T11:00:57.741Z,22.60
2024-05-09T11:03:25.258Z,23.10
2024-05-09T11:05:52.669Z,23.10
2024-05-09T11:08:22.086Z,22.90
2024-05-09T11:10:50.190Z,22.80
2024-05-09T11:13:36.313Z,22.70
2024-05-09T11:16:03.792Z,22.70
2024-05-09T11:18:36.175Z,22.30
2024-05-09T11:21:11.255Z,22.30
2024-05-09T11:23:39.141Z,22.00
2024-05-09T11:26:07.608Z,21.60
2024-05-09T11:28:34.399Z,21.60
2024-05-09T11:31:05.375Z,21.80
2024-05-09T11:33:32.378Z,22.00
2024-05-09T11:35:59.233Z,22.00
2024-05-09T11:38:26.472Z,21.60
2024-05-09T11:40:53.292Z,21.00
2024-05-09T11:43:20.460Z,21.10
2024-05-09T11:45:47.329Z,21.00
2024-05-09T11:48:14.458Z,20.80
2024-05-09T11:50:42.698Z,21.00
2024-05-09T11:53:09.529Z,21.10
2024-05-09T11:55:36.849Z,21.20
2024-05-09T11:58:04.367Z,20.90
2024-05-09T12:00:36.790Z,20.90
2024-05-09T12:03:05.694Z,21.20
2024-05-09T12:05:34.023Z,21.30
2024-05-09T12:08:01.533Z,21.40
2024-05-09T12:10:33.441Z,21.50
2024-05-09T12:13:04.581Z,21.40
2024-05-09T12:15:33.133Z,21.20
2024-05-09T12:18:02.937Z,20.80
2024-05-09T12:20:36.726Z,20.60
2024-05-09T12:23:06.696Z,20.60
2024-05-09T12:25:33.689Z,20.60
2024-05-09T12:28:00.987Z,20.60
2024-05-09T12:30:36.096Z,20.50
2024-05-09T12:33:07.417Z,20.30
2024-05-09T12:35:34.543Z,20.30
2024-05-09T12:38:01.364Z,20.20
2024-05-09T12:40:35.618Z,20.10
2024-05-09T12:43:05.954Z,20.00
2024-05-09T12:45:33.123Z,20.00
2024-05-09T12:48:00.298Z,20.10
2024-05-09T12:50:32.518Z,19.90
2024-05-09T12:53:01.710Z,19.80
2024-05-09T12:55:33.506Z,19.80
2024-05-09T12:58:07.162Z,19.60
2024-05-09T13:00:34.676Z,19.60
2024-05-09T13:03:01.778Z,19.70
2024-05-09T13:05:29.354Z,19.90
2024-05-09T13:07:57.025Z,20.10
2024-05-09T13:10:31.276Z,20.20
2024-05-09T13:13:00.667Z,20.30
2024-05-09T13:15:28.305Z,20.70
2024-05-09T13:17:57.890Z,21.00
2024-05-09T13:20:32.678Z,21.20
2024-05-09T13:23:02.341Z,21.20
2024-05-09T13:25:29.341Z,21.30
2024-05-09T13:27:56.732Z,21.40
2024-05-09T13:30:29.852Z,21.20
2024-05-09T13:33:06.321Z,20.90
2024-05-09T13:35:35.314Z,20.50
2024-05-09T13:38:03.268Z,20.30
2024-05-09T13:40:34.375Z,20.30
2024-05-09T13:43:03.708Z,20.30
2024-05-09T13:45:30.782Z,20.30
2024-05-09T13:47:57.951Z,20.30
2024-05-09T13:50:33.180Z,20.20
2024-05-09T13:53:03.372Z,20.20
2024-05-09T13:55:30.144Z,19.90
2024-05-09T13:57:57.122Z,19.80
2024-05-09T14:02:55.390Z,19.40
2024-05-09T14:05:22.355Z,19.20
2024-05-09T14:07:49.281Z,19.10
2024-05-09T14:10:23.188Z,19.10
2024-05-09T14:12:55.607Z,19.40
2024-05-09T14:15:22.474Z,19.80
2024-05-09T14:17:49.407Z,19.90
2024-05-09T14:20:23.861Z,20.10
2024-05-09T14:22:57.524Z,20.10
2024-05-09T14:25:26.447Z,20.40
2024-05-09T14:27:53.871Z,20.80
2024-05-09T14:30:30.158Z,21.20
2024-05-09T14:33:02.948Z,21.40
2024-05-09T14:35:30.101Z,21.80
2024-05-09T14:37:56.891Z,21.90
2024-05-09T14:42:53.526Z,22.20
2024-05-09T14:45:20.392Z,22.40
2024-05-09T14:47:50.186Z,22.50
2024-05-09T14:50:24.025Z,22.30
2024-05-09T14:52:59.370Z,22.00
2024-05-09T14:55:26.406Z,22.20
2024-05-09T14:57:53.256Z,22.10
2024-05-09T15:00:26.312Z,22.10
2024-05-09T15:02:59.706Z,22.20
2024-05-09T15:05:26.560Z,22.20
2024-05-09T15:07:53.529Z,22.10
2024-05-09T15:10:27.061Z,21.80
2024-05-09T15:13:01.542Z,21.60
2024-05-09T15:15:28.482Z,21.40
2024-05-09T15:17:55.778Z,21.30
2024-05-09T15:20:31.199Z,20.90
2024-05-09T15:23:02.402Z,20.50
2024-05-09T15:25:29.485Z,20.10
2024-05-09T15:27:56.533Z,19.90
2024-05-09T15:30:30.748Z,20.00
2024-05-09T15:33:00.529Z,20.20
2024-05-09T15:35:27.864Z,20.30
2024-05-09T15:37:55.015Z,20.40
2024-05-09T15:40:31.019Z,20.30
2024-05-09T15:43:05.367Z,20.10
2024-05-09T15:45:33.869Z,19.90
2024-05-09T15:48:01.873Z,19.60
2024-05-09T15:50:36.522Z,19.50
2024-05-09T15:53:07.719Z,19.50
2024-05-09T15:55:35.605Z,19.40
2024-05-09T15:58:03.209Z,19.20
2024-05-09T16:00:37.700Z,18.90
2024-05-09T16:03:08.895Z,18.90
2024-05-09T16:05:36.306Z,19.00
2024-05-09T16:08:03.250Z,18.80
2024-05-09T16:10:33.068Z,18.80
2024-05-09T16:13:02.089Z,18.80
2024-05-09T16:15:31.158Z,18.80
2024-05-09T16:17:58.155Z,18.70
2024-05-09T16:20:34.710Z,18.60
2024-05-09T16:23:08.068Z,18.60
2024-05-09T16:25:35.194Z,18.70
2024-05-09T16:28:03.805Z,18.60
2024-05-09T16:30:35.335Z,18.60
2024-05-09T16:33:04.441Z,18.50
2024-05-09T16:35:32.115Z,18.40
2024-05-09T16:38:01.581Z,18.30
2024-05-09T16:40:36.309Z,18.20
2024-05-09T16:43:06.986Z,18.00
2024-05-09T16:45:34.403Z,18.00
2024-05-09T16:48:01.909Z,17.90
2024-05-09T16:50:33.149Z,17.80
2024-05-09T16:53:02.102Z,17.60
2024-05-09T16:55:29.135Z,17.60
2024-05-09T16:57:56.781Z,17.50
2024-05-09T17:00:35.142Z,17.40
2024-05-09T17:03:08.523Z,17.40
2024-05-09T17:05:36.228Z,17.30
2024-05-09T17:08:03.839Z,17.30
2024-05-09T17:10:33.749Z,17.20
2024-05-09T17:13:03.437Z,17.10
2024-05-09T17:15:31.745Z,17.00
2024-05-09T17:17:58.682Z,17.00
2024-05-09T17:20:32.356Z,16.90
2024-05-09T17:23:02.722Z,16.80
2024-05-09T17:25:32.687Z,16.60
2024-05-09T17:28:06.390Z,16.40
2024-05-09T17:30:36.834Z,16.30
2024-05-09T17:33:06.225Z,16.00
2024-05-09T17:35:33.436Z,15.80
2024-05-09T17:38:01.616Z,15.70
2024-05-09T17:40:33.574Z,15.50
2024-05-09T17:43:04.194Z,15.40
2024-05-09T17:45:31.939Z,15.20
2024-05-09T17:47:59.972Z,15.00
2024-05-09T17:50:34.844Z,14.90
2024-05-09T17:53:04.205Z,14.70
2024-05-09T17:55:31.154Z,14.50
2024-05-09T17:57:58.224Z,14.40
2024-05-09T18:00:36.264Z,14.30
2024-05-09T18:03:07.057Z,14.20
2024-05-09T18:05:35.590Z,14.00
2024-05-09T18:08:05.308Z,13.90
2024-05-09T18:10:36.804Z,13.80
2024-05-09T18:13:08.713Z,13.70
2024-05-09T18:15:36.134Z,13.50
2024-05-09T18:18:03.949Z,13.30
2024-05-09T18:20:40.521Z,13.20
2024-05-09T18:23:11.813Z,13.10
2024-05-09T18:25:38.744Z,12.90
2024-05-09T18:28:06.008Z,12.80
2024-05-09T18:30:36.143Z,12.80
2024-05-09T18:33:07.228Z,12.60
2024-05-09T18:35:35.976Z,12.50
2024-05-09T18:38:03.174Z,12.30
2024-05-09T18:40:34.659Z,12.20
2024-05-09T18:45:51.700Z,12.00
2024-05-09T18:48:19.266Z,11.90
2024-05-09T18:50:46.136Z,11.80
2024-05-09T18:53:13.958Z,11.70
2024-05-09T18:55:43.822Z,11.60
2024-05-09T18:58:11.192Z,11.40
2024-05-09T19:00:40.451Z,11.30
2024-05-09T19:03:12.406Z,11.20
2024-05-09T19:05:43.711Z,11.10
2024-05-09T19:08:11.854Z,11.00
2024-05-09T19:10:39.353Z,10.90
2024-05-09T19:13:10.893Z,10.80
2024-05-09T19:15:40.472Z,10.70
2024-05-09T19:18:08.312Z,10.60
2024-05-09T19:20:36.867Z,10.50
2024-05-09T19:23:06.477Z,10.50
2024-05-09T19:25:34.621Z,10.30
2024-05-09T19:28:01.811Z,10.30
2024-05-09T19:30:37.942Z,10.30
2024-05-09T19:33:08.426Z,10.30
2024-05-09T19:35:35.543Z,10.10
2024-05-09T19:38:02.672Z,10.10
2024-05-09T19:40:32.341Z,10.00
2024-05-09T19:43:02.596Z,10.00
2024-05-09T19:45:30.203Z,9.90
2024-05-09T19:47:57.591Z,9.80
2024-05-09T19:50:32.444Z,9.80
2024-05-09T19:53:07.388Z,9.70
2024-05-09T19:55:34.731Z,9.70
2024-05-09T19:58:05.678Z,9.60
2024-05-09T20:00:36.727Z,9.50
2024-05-09T20:03:05.732Z,9.40
2024-05-09T20:05:33.302Z,9.30
2024-05-09T20:08:00.461Z,9.30
2024-05-09T20:10:32.124Z,9.30
2024-05-09T20:13:01.657Z,9.20
2024-05-09T20:15:28.613Z,9.10
2024-05-09T20:17:56.903Z,9.10
2024-05-09T20:20:32.693Z,9.00
2024-05-09T20:23:05.176Z,9.00
2024-05-09T20:25:31.920Z,9.00
2024-05-09T20:27:58.892Z,8.90
2024-05-09T20:30:31.614Z,8.90
2024-05-09T20:33:01.773Z,8.80
2024-05-09T20:35:31.984Z,8.80
2024-05-09T20:37:59.301Z,8.70
2024-05-09T20:40:32.417Z,8.60
2024-05-09T20:43:03.088Z,8.60
2024-05-09T20:45:29.965Z,8.50
2024-05-09T20:47:57.540Z,8.50
2024-05-09T20:50:35.420Z,8.50
2024-05-09T20:53:08.128Z,8.40
2024-05-09T20:55:35.093Z,8.40
2024-05-09T20:58:01.919Z,8.30
2024-05-09T21:00:35.516Z,8.30
2024-05-09T21:03:07.653Z,8.30
2024-05-09T21:05:35.556Z,8.20
2024-05-09T21:08:02.850Z,8.20
2024-05-09T21:10:32.424Z,8.20
2024-05-09T21:13:02.556Z,8.10
2024-05-09T21:15:30.060Z,8.10
2024-05-09T21:17:56.946Z,8.10
2024-05-09T21:20:30.542Z,8.00
2024-05-09T21:22:59.407Z,8.00
2024-05-09T21:25:26.219Z,8.00
2024-05-09T21:27:53.388Z,7.90
2024-05-09T21:30:31.779Z,7.80
2024-05-09T21:33:07.971Z,7.80
2024-05-09T21:35:35.110Z,7.80
2024-05-09T21:38:01.877Z,7.70
2024-05-09T21:40:34.260Z,7.70
2024-05-09T21:43:03.745Z,7.60
2024-05-09T21:45:30.744Z,7.60
2024-05-09T21:47:57.651Z,7.60
2024-05-09T21:50:32.229Z,7.60
2024-05-09T21:53:05.940Z,7.50
2024-05-09T21:55:32.981Z,7.50
2024-05-09T21:57:59.717Z,7.40
2024-05-09T22:00:34.607Z,7.40
2024-05-09T22:03:04.628Z,7.30
2024-05-09T22:05:31.817Z,7.30
2024-05-09T22:07:58.714Z,7.30
2024-05-09T22:10:31.105Z,7.30
2024-05-09T22:13:01.961Z,7.30
2024-05-09T22:15:29.157Z,7.20
2024-05-09T22:17:57.312Z,7.20
2024-05-09T22:20:33.549Z,7.20
2024-05-09T22:23:04.424Z,7.10
2024-05-09T22:25:32.254Z,7.10
2024-05-09T22:28:00.309Z,7.10
2024-05-09T22:30:35.398Z,7.00
2024-05-09T22:33:06.245Z,7.00
2024-05-09T22:35:33.517Z,7.00
2024-05-09T22:38:00.466Z,6.90
2024-05-09T22:42:56.977Z,6.80
2024-05-09T22:45:23.773Z,6.90
2024-05-09T22:47:50.893Z,6.90
2024-05-09T22:50:26.259Z,6.80
2024-05-09T22:52:54.138Z,6.80
2024-05-09T22:55:21.003Z,6.70
2024-05-09T22:57:48.756Z,6.70
2024-05-09T23:00:16.261Z,6.70
2024-05-09T23:02:45.473Z,6.70
2024-05-09T23:05:12.697Z,6.70
2024-05-09T23:07:39.679Z,6.60
2024-05-09T23:10:13.195Z,6.60
2024-05-09T23:12:43.997Z,6.60
2024-05-09T23:15:10.890Z,6.50
2024-05-09T23:17:37.827Z,6.50
2024-05-09T23:20:06.880Z,6.50
2024-05-09T23:22:35.611Z,6.40
2024-05-09T23:25:02.459Z,6.40
2024-05-09T23:27:29.265Z,6.40
2024-05-09T23:29:56.107Z,6.40
2024-05-09T23:32:23.081Z,6.40
2024-05-09T23:34:49.846Z,6.30
2024-05-09T23:37:16.711Z,6.30
2024-05-09T23:39:43.503Z,6.30
2024-05-09T23:42:10.276Z,6.30
2024-05-09T23:44:37.032Z,6.30
2024-05-09T23:47:03.985Z,6.30
2024-05-09T23:49:31.052Z,6.20
2024-05-09T23:51:58.057Z,6.20
2024-05-09T23:54:24.782Z,6.10
2024-05-09T23:56:51.535Z,6.10
2024-05-09T23:59:18.343Z,6.10
